Terminal Aerodrome Forecast
Issued by NWS Twin Cities, MN

Home | Current Version | Previous Version | Text Only | Print | Product List | Glossary Off
Versions: 1 2 3 4 5 6 7 8 9 10 11 12 13 14 15 16 17 18 19 20 21 22 23 24 25 26 27

000
FTUS43 KMPX 221100
TAFMSP
TAF
KMSP 221128Z 2212/2318 13012KT P6SM FEW250
     FM221600 14015G21KT P6SM BKN050 BKN150
     FM222100 15014G20KT P6SM SCT050 OVC120
     FM230300 15011KT P6SM OVC045 PROB30 2303/2305 6SM -SHRA
     FM230500 15008KT 5SM -SHRA BR BKN025 OVC035
     FM230900 16005KT 4SM BR OVC020
     FM231600 23006KT P6SM SCT020=

USA.gov is the U.S. government's official web portal to all federal, state and local government web resources and services.